Time;durP1;ratioP1;P1;durP2;ratioP2;P2;SDS_P1;SDS_P2;PMS_P1;PMS_P2;Temp;Humidity;BMP_temperature;BMP_pressure;BME280_temperature;BME280_humidity;BME280_pressure;Samples;Min_cycle;Max_cycle;Signal;HPM_P1;HPM_P2
2022/04/01 00:01:42;;;;;;;28.08;5.82;;;;;;;19.03;89.94;99396.66;5081051;28;20107;-79
2022/04/01 00:04:28;;;;;;;22.17;5.95;;;;;;;18.87;90.87;99396.06;5080646;28;20026;-79
2022/04/01 00:07:14;;;;;;;21.75;6.00;;;;;;;18.99;90.08;99405.78;5080471;28;20020;-79
2022/04/01 00:10:01;;;;;;;35.22;6.47;;;;;;;18.86;90.67;99406.78;5082322;28;20031;-80
2022/04/01 00:12:47;;;;;;;27.08;6.95;;;;;;;18.73;91.88;99409.44;5095976;28;20044;-79
2022/04/01 00:15:33;;;;;;;25.88;6.55;;;;;;;18.80;91.94;99404.53;5081406;28;20024;-78
2022/04/01 00:18:20;;;;;;;24.17;6.35;;;;;;;18.82;92.51;99426.53;5095801;28;20056;-79
2022/04/01 00:21:05;;;;;;;26.88;6.30;;;;;;;18.80;92.93;99410.72;5096250;28;20378;-80
2022/04/01 00:23:51;;;;;;;29.50;6.47;;;;;;;18.80;93.09;99408.06;5094972;28;20020;-79
2022/04/01 00:26:37;;;;;;;25.17;6.75;;;;;;;18.61;94.59;99412.13;5095170;28;20051;-80
2022/04/01 00:29:23;;;;;;;23.90;5.82;;;;;;;18.70;94.32;99398.22;5080991;28;20027;-80
2022/04/01 00:32:08;;;;;;;27.75;7.07;;;;;;;18.67;94.35;99399.28;5080515;28;20032;-79
2022/04/01 00:34:54;;;;;;;34.70;6.82;;;;;;;18.71;93.17;99392.81;5081373;28;20356;-78
2022/04/01 00:37:40;;;;;;;26.17;6.20;;;;;;;18.78;93.02;99393.22;5095756;28;20360;-79
2022/04/01 00:40:26;;;;;;;21.25;6.30;;;;;;;18.71;93.67;99387.50;5080544;28;20403;-80
2022/04/01 00:43:12;;;;;;;23.88;6.45;;;;;;;18.64;94.06;99395.97;5079968;28;20541;-80
2022/04/01 00:45:58;;;;;;;25.00;6.18;;;;;;;18.61;94.35;99398.88;5093841;28;20024;-79
2022/04/01 00:48:44;;;;;;;22.38;6.30;;;;;;;18.49;95.34;99410.34;5094627;28;20039;-78
2022/04/01 00:51:30;;;;;;;20.10;6.20;;;;;;;18.71;94.22;99413.16;5080646;28;20039;-78
2022/04/01 00:54:17;;;;;;;30.33;6.80;;;;;;;18.75;93.42;99417.31;5080324;28;20123;-79
2022/04/01 00:57:04;;;;;;;23.80;5.95;;;;;;;18.51;94.42;99427.00;5094747;28;20459;-78
2022/04/01 00:59:50;;;;;;;18.33;6.00;;;;;;;18.57;94.08;99434.53;5080568;28;20518;-79
2022/04/01 01:02:36;;;;;;;20.27;5.40;;;;;;;18.56;93.89;99427.50;5095523;28;20058;-80
2022/04/01 01:05:23;;;;;;;26.58;6.28;;;;;;;18.53;93.85;99420.63;5093574;28;20458;-78
2022/04/01 01:08:09;;;;;;;26.35;6.55;;;;;;;18.55;93.58;99426.69;5094792;28;20368;-79
2022/04/01 01:10:56;;;;;;;25.20;6.53;;;;;;;18.60;93.40;99408.63;5080838;28;20090;-78
2022/04/01 01:13:41;;;;;;;21.35;5.85;;;;;;;18.55;93.34;99418.72;5094224;28;20061;-77
2022/04/01 01:16:28;;;;;;;22.83;6.10;;;;;;;18.64;92.84;99414.56;5094957;28;20111;-79
2022/04/01 01:19:16;;;;;;;27.00;6.82;;;;;;;18.40;95.20;99400.38;5094194;28;20020;-79
2022/04/01 01:22:02;;;;;;;33.10;6.50;;;;;;;18.51;94.90;99400.47;5094408;28;20043;-79
2022/04/01 01:24:49;;;;;;;33.22;7.53;;;;;;;18.54;94.99;99400.25;5093805;28;20020;-79
2022/04/01 01:27:36;;;;;;;30.65;6.45;;;;;;;18.39;96.11;99398.69;5079202;28;20051;-78
2022/04/01 01:30:24;;;;;;;26.20;6.82;;;;;;;18.33;96.91;99383.19;5093032;28;20054;-79
2022/04/01 01:33:11;;;;;;;23.77;6.43;;;;;;;18.31;96.78;99385.06;5094644;28;20028;-78
2022/04/01 01:35:57;;;;;;;26.05;7.05;;;;;;;18.71;93.79;99383.97;5079719;28;20103;-79
2022/04/01 01:38:43;;;;;;;25.63;6.63;;;;;;;18.28;95.94;99372.88;5080360;28;20181;-79
2022/04/01 01:41:28;;;;;;;28.83;7.00;;;;;;;18.34;95.83;99380.44;5094125;28;20032;-78
2022/04/01 01:44:16;;;;;;;28.90;6.70;;;;;;;18.58;93.65;99361.94;5079882;28;20020;-78
2022/04/01 01:47:02;;;;;;;23.48;5.88;;;;;;;18.45;94.38;99354.00;5080758;28;20368;-79
2022/04/01 01:55:57;;;;;;;28.42;6.47;;;;;;;18.50;93.74;99370.47;5094510;28;20023;-78
2022/04/01 01:58:43;;;;;;;28.45;6.93;;;;;;;18.32;93.87;99365.53;5079470;28;20105;-78
2022/04/01 02:01:29;;;;;;;25.25;6.35;;;;;;;18.49;93.63;99360.78;5094157;28;20441;-78
2022/04/01 02:04:15;;;;;;;27.55;6.60;;;;;;;18.32;95.21;99355.81;5095018;28;20521;-77
2022/04/01 02:07:05;;;;;;;27.98;6.60;;;;;;;18.27;96.01;99357.06;5094914;28;20125;-76
2022/04/01 02:09:50;;;;;;;30.63;6.88;;;;;;;18.44;94.44;99351.47;5095228;28;20039;-78
2022/04/01 02:12:36;;;;;;;27.08;6.68;;;;;;;18.21;95.54;99349.56;5093494;28;20491;-78
2022/04/01 02:15:22;;;;;;;24.52;6.07;;;;;;;18.32;95.01;99350.50;5096406;28;20356;-79
2022/04/01 02:18:10;;;;;;;26.05;7.22;;;;;;;18.27;95.55;99346.47;5093923;28;20052;-80
2022/04/01 02:20:56;;;;;;;20.88;6.38;;;;;;;18.73;91.88;99335.16;5094808;28;20034;-80
2022/04/01 02:23:44;;;;;;;24.75;6.80;;;;;;;18.40;93.17;99337.56;5093881;28;20448;-78
2022/04/01 02:26:30;;;;;;;27.63;6.60;;;;;;;18.52;93.20;99318.13;5095021;28;20028;-79
2022/04/01 02:29:19;;;;;;;25.45;6.97;;;;;;;18.40;93.44;99323.47;5093737;28;20051;-78
2022/04/01 02:32:06;;;;;;;26.90;7.13;;;;;;;18.58;91.58;99314.19;5079474;28;20402;-78
2022/04/01 02:34:52;;;;;;;24.83;6.28;;;;;;;18.43;92.57;99305.53;5082086;28;20074;-79
2022/04/01 02:37:39;;;;;;;25.75;6.47;;;;;;;18.42;93.17;99303.00;5097691;28;20055;-79
2022/04/01 02:40:25;;;;;;;23.17;6.30;;;;;;;18.58;91.46;99306.25;5097369;28;20023;-79
2022/04/01 02:43:11;;;;;;;26.55;6.97;;;;;;;18.68;90.00;99321.38;5097436;28;20036;-79
2022/04/01 02:45:57;;;;;;;22.00;6.40;;;;;;;18.52;91.16;99328.75;5083792;28;20031;-79
2022/04/01 02:48:43;;;;;;;25.25;6.38;;;;;;;18.44;92.82;99332.88;5096544;28;20032;-79
2022/04/01 02:51:28;;;;;;;29.83;6.88;;;;;;;18.52;91.41;99323.44;5084174;28;20052;-79
2022/04/01 02:54:14;;;;;;;32.58;7.38;;;;;;;18.19;95.22;99312.56;5097592;28;20035;-79
2022/04/01 02:57:02;;;;;;;22.08;6.70;;;;;;;18.14;95.35;99305.88;5097714;28;20103;-79
2022/04/01 02:59:48;;;;;;;25.77;6.97;;;;;;;18.05;96.25;99298.59;5095805;28;20066;-79
2022/04/01 03:02:35;;;;;;;27.75;7.70;;;;;;;18.12;96.29;99284.78;5097575;28;20027;-78
2022/04/01 03:05:21;;;;;;;32.92;8.20;;;;;;;18.00;96.86;99285.63;5082800;28;20024;-79
2022/04/01 03:08:09;;;;;;;33.38;10.05;;;;;;;18.07;96.90;99291.34;5083639;28;20032;-77
2022/04/01 03:10:57;;;;;;;29.50;7.57;;;;;;;17.89;96.95;99290.00;5083114;28;20462;-80
2022/04/01 03:13:43;;;;;;;32.97;7.53;;;;;;;17.75;98.46;99285.66;5096421;28;20126;-78
2022/04/01 03:16:29;;;;;;;30.48;6.70;;;;;;;18.17;95.11;99289.75;5082856;28;20035;-79
2022/04/01 03:19:16;;;;;;;33.80;12.13;;;;;;;18.18;94.62;99291.47;5082134;28;20344;-79
2022/04/01 03:22:02;;;;;;;31.10;6.95;;;;;;;18.03;95.37;99293.38;5095959;28;20071;-78
2022/04/01 03:24:48;;;;;;;28.27;7.75;;;;;;;18.32;92.64;99294.81;5082920;28;20024;-79
2022/04/01 03:27:33;;;;;;;23.80;6.65;;;;;;;18.20;92.46;99295.69;5095718;28;20028;-78
2022/04/01 03:30:19;;;;;;;27.13;6.88;;;;;;;18.36;91.28;99314.03;5095463;28;20023;-80
2022/04/01 03:33:05;;;;;;;30.30;6.85;;;;;;;18.17;92.35;99318.94;5082386;28;20372;-78
2022/04/01 03:35:52;;;;;;;28.17;6.57;;;;;;;18.32;90.20;99320.47;5097356;28;20035;-79
2022/04/01 03:38:38;;;;;;;33.33;6.78;;;;;;;18.35;90.14;99320.28;5096483;28;20035;-77
2022/04/01 03:41:24;;;;;;;38.45;14.20;;;;;;;18.40;89.49;99326.09;5096071;28;20032;-78
2022/04/01 03:44:11;;;;;;;35.42;12.05;;;;;;;18.46;88.87;99323.91;5094933;28;20035;-81
2022/04/01 03:47:10;;;;;;;30.45;8.07;;;;;;;18.43;88.36;99318.81;5095005;28;20032;-75
2022/04/01 03:50:00;;;;;;;30.42;6.95;;;;;;;18.63;87.29;99325.31;5096239;28;20035;-76
2022/04/01 03:52:47;;;;;;;32.35;7.18;;;;;;;18.53;86.71;99322.47;5094968;28;20024;-77
2022/04/01 03:55:38;;;;;;;34.03;6.93;;;;;;;18.29;89.07;99323.38;5067891;28;20103;-77
2022/04/01 03:58:32;;;;;;;30.30;6.72;;;;;;;18.45;87.81;99329.31;5095210;28;20062;-75
2022/04/01 04:01:17;;;;;;;33.65;7.55;;;;;;;18.18;89.22;99323.25;5094813;28;20028;-75
2022/04/01 04:04:05;;;;;;;27.10;7.57;;;;;;;18.24;89.21;99328.97;5094055;28;20039;-75
2022/04/01 04:06:52;;;;;;;30.70;6.93;;;;;;;18.40;87.65;99320.81;5082017;28;20107;-76
2022/04/01 04:09:39;;;;;;;40.45;7.45;;;;;;;18.31;88.05;99309.03;5096154;28;20038;-76
2022/04/01 04:12:27;;;;;;;41.00;7.32;;;;;;;18.26;87.46;99311.19;5095444;28;20448;-75
2022/04/01 04:15:13;;;;;;;30.27;6.45;;;;;;;18.18;88.71;99304.72;5094299;28;20028;-75
2022/04/01 04:18:01;;;;;;;38.33;7.28;;;;;;;18.36;87.06;99314.03;5093955;28;20368;-75
2022/04/01 04:21:15;;;;;;;36.65;7.70;;;;;;;18.39;86.60;99309.38;5095246;28;20058;-75
2022/04/01 04:24:02;;;;;;;39.15;7.85;;;;;;;18.21;87.53;99310.63;5105855;28;20027;-75
2022/04/01 04:26:50;;;;;;;40.35;8.15;;;;;;;18.20;87.38;99319.53;5100054;28;20107;-76
2022/04/01 04:29:48;;;;;;;37.38;8.27;;;;;;;18.36;85.98;99308.72;5079697;28;20103;-74
2022/04/01 04:32:35;;;;;;;37.00;8.82;;;;;;;18.33;84.72;99316.88;5095122;28;20027;-76
2022/04/01 04:35:21;;;;;;;40.20;8.18;;;;;;;18.27;85.20;99322.59;5095738;28;20456;-78
2022/04/01 04:38:09;;;;;;;36.70;8.40;;;;;;;18.34;84.24;99332.72;5094452;28;20031;-79
2022/04/01 04:40:56;;;;;;;31.15;8.07;;;;;;;18.26;84.54;99328.88;5094736;28;20024;-79
2022/04/01 04:43:46;;;;;;;42.70;8.98;;;;;;;18.53;82.60;99329.59;5094419;28;20028;-79
2022/04/01 04:46:34;;;;;;;38.22;8.77;;;;;;;18.38;82.36;99336.84;5080417;28;20020;-78
2022/04/01 04:49:21;;;;;;;48.75;9.60;;;;;;;18.34;81.91;99329.22;5094917;28;20444;-79
2022/04/01 04:52:08;;;;;;;47.25;9.02;;;;;;;18.55;81.29;99314.41;5095253;28;20063;-78
2022/04/01 04:54:55;;;;;;;40.25;8.88;;;;;;;18.58;80.09;99324.81;5093968;28;20368;-78
2022/04/01 04:57:42;;;;;;;45.17;9.38;;;;;;;18.79;78.96;99318.81;5094224;28;20094;-78
2022/04/01 05:00:28;;;;;;;45.20;9.82;;;;;;;18.43;79.56;99310.00;5094935;28;20111;-79
2022/04/01 05:03:22;;;;;;;42.05;9.52;;;;;;;18.62;78.52;99313.84;5093807;28;20024;-78
2022/04/01 05:06:10;;;;;;;44.78;9.55;;;;;;;18.60;78.14;99315.78;5094247;28;20047;-77
2022/04/01 05:09:08;;;;;;;42.20;9.57;;;;;;;18.66;77.72;99325.09;5094094;28;20035;-78
2022/04/01 05:12:12;;;;;;;48.72;10.27;;;;;;;18.87;76.04;99313.78;5080893;28;20055;-77
2022/04/01 05:15:09;;;;;;;57.00;11.38;;;;;;;18.87;75.41;99304.97;5094739;28;20085;-77
2022/04/01 05:18:34;;;;;;;57.58;10.68;;;;;;;18.99;74.46;99309.38;5093444;28;20063;-78
2022/04/01 05:21:23;;;;;;;53.08;9.13;;;;;;;18.97;74.18;99300.69;5078096;28;20180;-77
2022/04/01 05:24:14;;;;;;;51.30;10.77;;;;;;;18.91;74.54;99301.13;5080926;28;20130;-78
2022/04/01 05:27:02;;;;;;;51.78;11.00;;;;;;;18.80;74.46;99303.72;5093847;28;20024;-79
2022/04/01 05:30:13;;;;;;;52.88;10.60;;;;;;;19.08;73.45;99306.03;5079463;28;20032;-78
2022/04/01 05:33:15;;;;;;;53.47;11.90;;;;;;;19.06;72.82;99286.72;5093984;28;20031;-79
2022/04/01 05:36:04;;;;;;;52.15;10.85;;;;;;;19.09;72.15;99289.16;5093737;28;20027;-78
2022/04/01 05:38:50;;;;;;;54.65;10.13;;;;;;;19.29;71.25;99293.81;5092422;28;20514;-77
2022/04/01 05:41:36;;;;;;;49.20;10.23;;;;;;;19.26;70.99;99294.06;5094311;28;20396;-78
2022/04/01 05:44:24;;;;;;;55.35;9.98;;;;;;;19.46;69.43;99306.69;5078572;28;20032;-78
2022/04/01 05:47:10;;;;;;;50.08;10.77;;;;;;;19.44;69.65;99308.63;5093748;28;20031;-78
2022/04/01 05:49:58;;;;;;;65.25;10.55;;;;;;;19.46;69.03;99305.84;5094849;28;20020;-78
2022/04/01 05:52:47;;;;;;;60.53;10.35;;;;;;;19.53;68.39;99337.13;5092667;28;20455;-78
2022/04/01 05:55:35;;;;;;;57.35;11.35;;;;;;;19.67;67.78;99313.03;5093878;28;20020;-78
2022/04/01 05:58:21;;;;;;;40.78;9.95;;;;;;;19.74;67.52;99308.09;5093168;28;20036;-78
2022/04/01 06:01:29;;;;;;;50.17;9.65;;;;;;;20.09;65.03;99301.75;5094130;28;20034;-78
2022/04/01 06:04:27;;;;;;;63.90;10.10;;;;;;;20.02;65.69;99297.88;5093817;28;20020;-78
2022/04/01 06:07:37;;;;;;;57.67;10.93;;;;;;;20.18;64.50;99303.72;5093680;28;20020;-78
2022/04/01 06:11:00;;;;;;;64.68;10.48;;;;;;;20.00;64.63;99309.56;5097290;28;20115;-77
2022/04/01 06:13:57;;;;;;;56.08;10.35;;;;;;;20.04;64.28;99297.72;5097628;28;20048;-78
2022/04/01 06:16:46;;;;;;;54.40;10.27;;;;;;;20.08;63.93;99302.69;5097718;28;20375;-77
2022/04/01 06:19:40;;;;;;;64.72;10.90;;;;;;;20.13;63.28;99297.88;5097617;28;20070;-78
2022/04/01 06:22:30;;;;;;;59.97;10.20;;;;;;;20.15;62.99;99309.25;5083299;28;20364;-78
2022/04/01 06:25:20;;;;;;;59.45;10.18;;;;;;;20.05;62.64;99299.44;5097648;28;20035;-78
2022/04/01 06:28:24;;;;;;;49.65;10.60;;;;;;;20.20;62.59;99293.78;5083236;28;20032;-78
2022/04/01 06:31:12;;;;;;;49.88;10.13;;;;;;;20.47;61.63;99294.25;5083072;28;20094;-78
2022/04/01 06:34:14;;;;;;;51.85;10.02;;;;;;;20.71;60.90;99302.06;5097494;28;20040;-78
2022/04/01 06:37:04;;;;;;;57.17;9.43;;;;;;;20.81;60.56;99293.19;5069203;28;20094;-77
2022/04/01 06:39:57;;;;;;;58.00;11.70;;;;;;;20.82;60.85;99302.88;5097664;28;20156;-78
2022/04/01 06:42:44;;;;;;;55.13;10.48;;;;;;;20.79;60.18;99299.63;5091507;28;20036;-78
2022/04/01 06:45:30;;;;;;;45.63;10.52;;;;;;;20.83;60.24;99301.06;5097167;28;20031;-77
2022/04/01 06:48:16;;;;;;;48.67;10.75;;;;;;;21.13;59.43;99291.44;5081257;28;20070;-78
2022/04/01 06:51:02;;;;;;;55.63;10.30;;;;;;;21.17;59.07;99289.34;5096346;28;20028;-79
2022/04/01 06:53:48;;;;;;;50.38;10.45;;;;;;;21.22;58.33;99287.16;5097160;28;20098;-79
2022/04/01 06:56:34;;;;;;;48.80;10.32;;;;;;;20.96;59.00;99288.47;5096761;28;20028;-79
2022/04/01 06:59:20;;;;;;;51.92;10.90;;;;;;;21.02;59.35;99293.31;5096508;28;20067;-78
2022/04/01 07:02:06;;;;;;;47.75;10.90;;;;;;;21.34;58.54;99289.63;5095545;28;20051;-79
2022/04/01 07:04:52;;;;;;;55.70;10.95;;;;;;;21.36;58.38;99290.38;5097075;28;20448;-78
2022/04/01 07:07:42;;;;;;;53.88;11.40;;;;;;;21.38;58.07;99280.41;5097327;28;20059;-79
2022/04/01 07:10:27;;;;;;;50.63;10.60;;;;;;;21.48;58.23;99288.47;5095774;28;20028;-77
2022/04/01 07:13:13;;;;;;;57.03;10.73;;;;;;;21.84;57.48;99286.22;5096437;28;20048;-78
2022/04/01 07:15:59;;;;;;;55.20;10.75;;;;;;;21.72;57.60;99287.28;5096948;28;20035;-78
2022/04/01 07:18:45;;;;;;;58.90;11.05;;;;;;;21.87;56.73;99293.94;5094538;28;20058;-79
2022/04/01 07:21:31;;;;;;;65.03;11.27;;;;;;;21.69;56.84;99299.97;5097104;28;20020;-78
2022/04/01 07:24:16;;;;;;;51.50;10.90;;;;;;;21.96;56.59;99282.50;5095933;28;20035;-77
2022/04/01 07:27:02;;;;;;;62.22;11.00;;;;;;;21.74;56.54;99279.97;5096858;28;20414;-77
2022/04/01 07:29:48;;;;;;;54.85;10.55;;;;;;;21.91;56.14;99271.38;5094670;28;20027;-78
2022/04/01 07:32:35;;;;;;;64.18;11.77;;;;;;;22.18;55.13;99279.66;5083494;28;20059;-78
2022/04/01 07:35:21;;;;;;;54.75;10.93;;;;;;;22.48;54.20;99285.00;5095693;28;20039;-78
2022/04/01 07:38:08;;;;;;;59.22;11.45;;;;;;;22.41;53.46;99283.81;5096612;28;20028;-78
2022/04/01 07:40:53;;;;;;;57.22;11.20;;;;;;;22.61;52.91;99282.06;5096045;28;20035;-79
2022/04/01 07:43:39;;;;;;;50.50;10.75;;;;;;;22.67;53.01;99282.34;5095947;28;20024;-78
2022/04/01 07:46:25;;;;;;;46.30;11.00;;;;;;;23.02;52.26;99288.06;5095829;28;20062;-78
2022/04/01 07:49:11;;;;;;;49.65;10.50;;;;;;;22.95;52.03;99292.25;5095007;28;20028;-79
2022/04/01 07:51:59;;;;;;;52.60;11.27;;;;;;;23.00;51.46;99282.03;5082854;28;20070;-80
2022/04/01 07:54:47;;;;;;;52.03;11.63;;;;;;;22.77;51.97;99283.25;5095344;28;20030;-80
2022/04/01 07:57:33;;;;;;;56.92;11.63;;;;;;;22.73;51.86;99281.81;5095874;28;20109;-79
2022/04/01 08:00:19;;;;;;;57.05;11.40;;;;;;;23.10;51.36;99282.00;5095238;28;20101;-79
2022/04/01 08:03:05;;;;;;;55.03;11.63;;;;;;;23.20;50.99;99275.69;5095562;28;20086;-79
2022/04/01 08:05:50;;;;;;;50.85;11.32;;;;;;;23.56;50.57;99271.47;5095184;28;20108;-78
2022/04/01 08:08:38;;;;;;;47.22;10.63;;;;;;;23.79;50.32;99277.34;5080513;28;20036;-78
2022/04/01 08:11:27;;;;;;;42.78;11.10;;;;;;;24.10;49.30;99270.81;5094089;28;20023;-79
2022/04/01 08:14:13;;;;;;;53.45;11.13;;;;;;;24.16;48.68;99265.69;5074163;28;20118;-79
2022/04/01 08:16:59;;;;;;;45.58;11.32;;;;;;;23.49;49.85;99265.00;5075070;28;20029;-79
2022/04/01 08:19:45;;;;;;;50.97;11.00;;;;;;;23.69;49.10;99260.44;5073360;28;20020;-79
2022/04/01 08:22:30;;;;;;;58.35;11.23;;;;;;;24.01;48.60;99260.94;5074554;28;20052;-79
2022/04/01 08:25:16;;;;;;;56.45;11.48;;;;;;;24.11;48.62;99253.75;5074573;28;20024;-79
2022/04/01 08:28:03;;;;;;;59.05;11.32;;;;;;;24.26;48.05;99254.97;5074415;28;20040;-78
2022/04/01 08:30:49;;;;;;;51.25;11.25;;;;;;;24.63;47.05;99258.44;5072871;28;20028;-79
2022/04/01 08:33:37;;;;;;;63.15;11.77;;;;;;;24.62;46.27;99251.38;5074156;28;20025;-79
2022/04/01 08:36:22;;;;;;;47.83;11.38;;;;;;;25.05;45.72;99241.66;5075062;28;20419;-79
2022/04/01 08:39:08;;;;;;;56.85;12.77;;;;;;;25.30;45.83;99242.72;5077897;28;20028;-78
2022/04/01 08:41:56;;;;;;;56.22;11.43;;;;;;;25.56;44.88;99235.56;5074834;28;20025;-79
2022/04/01 08:44:45;;;;;;;52.55;11.57;;;;;;;24.97;45.36;99230.84;5075850;28;20028;-79
2022/04/01 08:47:31;;;;;;;54.28;12.18;;;;;;;25.42;44.33;99233.44;5059460;28;20111;-80
2022/04/01 08:50:17;;;;;;;56.20;11.32;;;;;;;25.55;44.44;99228.53;5076980;28;20083;-79
2022/04/01 08:53:03;;;;;;;67.65;11.95;;;;;;;25.36;43.99;99226.84;5059295;28;20023;-79
2022/04/01 08:55:51;;;;;;;49.10;10.88;;;;;;;25.56;43.73;99214.91;5078921;28;20432;-80
2022/04/01 08:58:38;;;;;;;49.13;10.27;;;;;;;25.61;43.07;99220.69;5080777;28;20063;-75
2022/04/01 09:01:24;;;;;;;65.28;12.25;;;;;;;25.47;43.05;99225.78;5083592;28;20025;-78
2022/04/01 09:04:23;;;;;;;60.15;11.85;;;;;;;25.72;42.78;99198.09;5064630;28;20032;-79
2022/04/01 09:07:13;;;;;;;54.25;11.15;;;;;;;25.76;42.91;99205.66;5080678;28;20102;-78
2022/04/01 09:10:01;;;;;;;66.90;12.13;;;;;;;25.83;42.73;99206.72;5081800;28;20025;-81
2022/04/01 09:12:54;;;;;;;66.85;12.85;;;;;;;26.20;41.67;99207.25;5081298;28;20044;-78
2022/04/01 09:15:42;;;;;;;53.83;10.57;;;;;;;25.91;42.36;99192.50;5080187;28;20043;-78
2022/04/01 09:18:37;;;;;;;58.90;11.80;;;;;;;25.67;42.91;99203.94;5068527;28;20083;-77
2022/04/01 09:21:35;;;;;;;62.67;11.68;;;;;;;25.95;41.80;99207.31;5065209;28;20128;-78
2022/04/01 09:24:21;;;;;;;53.47;11.07;;;;;;;25.79;42.04;99191.94;5064183;28;20085;-78
2022/04/01 09:27:07;;;;;;;57.08;11.32;;;;;;;25.74;42.25;99190.72;5077958;28;20038;-78
2022/04/01 09:29:53;;;;;;;57.75;11.50;;;;;;;25.98;41.68;99167.59;5076998;28;20029;-78
2022/04/01 09:32:42;;;;;;;61.17;11.32;;;;;;;25.86;42.05;99181.41;5077448;28;20036;-78
2022/04/01 09:35:31;;;;;;;61.92;11.70;;;;;;;26.25;41.43;99183.47;5078861;28;20033;-78
2022/04/01 09:38:17;;;;;;;64.22;10.50;;;;;;;26.12;41.64;99187.63;5066220;28;20036;-78
2022/04/01 09:41:05;;;;;;;57.67;10.98;;;;;;;26.16;41.57;99186.28;5062310;28;20057;-78
2022/04/01 09:44:01;;;;;;;48.00;11.40;;;;;;;26.20;41.11;99183.09;5079194;28;20016;-79
2022/04/01 09:46:53;;;;;;;66.05;11.27;;;;;;;26.61;40.43;99182.22;5079657;28;20510;-79
2022/04/01 09:49:42;;;;;;;54.67;10.35;;;;;;;26.53;40.45;99187.56;5079758;28;20024;-78
2022/04/01 09:52:34;;;;;;;64.30;12.00;;;;;;;26.57;39.46;99191.59;5084397;28;20063;-78
2022/04/01 09:55:19;;;;;;;62.20;11.70;;;;;;;26.35;39.81;99186.00;5087111;28;20032;-77
2022/04/01 09:58:06;;;;;;;54.65;11.63;;;;;;;26.15;39.76;99196.19;5083902;28;20032;-77
2022/04/01 10:00:53;;;;;;;67.25;11.98;;;;;;;26.27;38.76;99188.66;5083740;28;20024;-76
2022/04/01 10:03:39;;;;;;;65.80;11.95;;;;;;;25.88;39.66;99182.91;5080805;28;20412;-78
2022/04/01 10:06:25;;;;;;;57.28;10.82;;;;;;;26.27;40.01;99180.59;5078052;28;20055;-79
2022/04/01 10:09:12;;;;;;;59.20;11.05;;;;;;;26.39;40.33;99174.78;5066439;28;20471;-78
2022/04/01 10:12:02;;;;;;;56.20;11.35;;;;;;;26.27;40.18;99153.75;5063844;28;20452;-77
2022/04/01 10:14:54;;;;;;;55.90;10.90;;;;;;;26.30;40.09;99156.97;5084396;28;20039;-78
2022/04/01 10:17:41;;;;;;;56.92;11.82;;;;;;;26.42;39.90;99157.50;5100942;28;20028;-78
2022/04/01 10:20:33;;;;;;;55.92;10.18;;;;;;;26.61;39.51;99163.44;5084302;28;20447;-78
2022/04/01 10:23:21;;;;;;;48.35;10.25;;;;;;;26.52;39.65;99152.81;5099647;28;20051;-78
2022/04/01 10:26:13;;;;;;;63.75;11.30;;;;;;;26.80;39.02;99159.63;5095541;28;20019;-76
2022/04/01 10:29:00;;;;;;;60.63;10.80;;;;;;;26.99;38.99;99144.00;5098876;28;20055;-77
2022/04/01 10:31:54;;;;;;;70.22;12.00;;;;;;;26.66;39.05;99133.38;5111723;28;20088;-77
2022/04/01 10:34:47;;;;;;;64.55;11.55;;;;;;;26.26;39.06;99125.22;5108744;28;20024;-77
2022/04/01 10:37:34;;;;;;;67.60;12.07;;;;;;;26.48;38.95;99109.31;5100662;28;20020;-79
2022/04/01 10:40:20;;;;;;;56.20;11.32;;;;;;;26.82;38.77;99117.28;5100514;28;20024;-78
2022/04/01 10:43:12;;;;;;;45.05;10.35;;;;;;;27.06;38.47;99106.50;5084896;28;20027;-78
2022/04/01 10:46:04;;;;;;;62.13;11.80;;;;;;;26.66;38.80;99120.81;5098432;28;20051;-78
2022/04/01 10:52:12;;;;;;;61.30;10.82;;;;;;;27.01;38.34;99106.19;5098512;28;20429;-78
2022/04/01 10:55:05;;;;;;;60.17;10.95;;;;;;;26.76;38.33;99102.66;5095339;28;20024;-78
2022/04/01 10:57:51;;;;;;;52.10;10.32;;;;;;;26.57;38.46;99094.88;5098341;28;20066;-78
2022/04/01 11:00:51;;;;;;;60.03;10.73;;;;;;;27.26;37.89;99106.03;5096365;28;20024;-78
2022/04/01 11:03:37;;;;;;;52.63;10.82;;;;;;;26.84;38.54;99099.97;5097332;28;20440;-79
2022/04/01 11:06:26;;;;;;;55.28;10.55;;;;;;;27.04;38.76;99089.69;5099464;28;20081;-78
2022/04/01 11:09:31;;;;;;;55.95;10.68;;;;;;;27.12;38.36;99089.69;5097530;28;20024;-79
2022/04/01 11:12:18;;;;;;;50.72;9.88;;;;;;;26.73;38.53;99081.50;5098529;28;20059;-77
2022/04/01 11:15:10;;;;;;;54.13;10.63;;;;;;;27.35;38.09;99082.63;5097165;28;20024;-77
2022/04/01 11:17:55;;;;;;;43.78;10.45;;;;;;;27.36;37.58;99087.84;5111510;28;20027;-78
2022/04/01 11:20:55;;;;;;;58.15;10.18;;;;;;;27.24;37.60;99080.28;5097134;28;20101;-78
2022/04/01 11:23:41;;;;;;;49.03;10.82;;;;;;;27.47;36.90;99062.41;5097354;28;20060;-78
2022/04/01 11:26:41;;;;;;;49.40;10.18;;;;;;;27.09;37.47;99066.66;5098432;28;20016;-77
2022/04/01 11:29:27;;;;;;;54.72;10.40;;;;;;;27.24;37.42;99048.00;5083445;28;20043;-78
2022/04/01 11:32:18;;;;;;;67.22;10.70;;;;;;;27.25;36.93;99047.84;5097566;28;20407;-79
2022/04/01 11:35:08;;;;;;;53.08;10.32;;;;;;;27.58;36.95;99026.22;5096432;28;20032;-77
2022/04/01 11:37:55;;;;;;;46.08;10.18;;;;;;;27.92;36.74;99021.38;5096044;28;20478;-78
2022/04/01 11:40:43;;;;;;;54.55;10.48;;;;;;;27.93;36.26;99028.44;5095839;28;20036;-78
2022/04/01 11:43:30;;;;;;;44.25;10.68;;;;;;;27.82;36.42;99043.13;5096021;28;20032;-78
2022/04/01 11:46:15;;;;;;;60.95;9.77;;;;;;;27.96;36.32;99018.13;5095305;28;20420;-74
2022/04/01 11:49:01;;;;;;;50.35;10.10;;;;;;;27.90;35.83;99015.31;5095374;28;20035;-77
2022/04/01 11:51:47;;;;;;;51.03;10.30;;;;;;;27.55;35.79;99013.94;5094613;28;20470;-77
2022/04/01 11:54:34;;;;;;;45.63;9.98;;;;;;;27.59;36.17;99009.91;5080771;28;20040;-77
2022/04/01 11:57:20;;;;;;;58.63;9.73;;;;;;;27.76;36.09;99000.72;5096121;28;20032;-77
2022/04/01 12:00:10;;;;;;;54.42;10.43;;;;;;;27.39;36.72;98997.88;5095673;28;20028;-78
2022/04/01 12:02:56;;;;;;;50.95;9.70;;;;;;;27.36;36.63;98993.69;5095579;28;20043;-77
2022/04/01 12:05:42;;;;;;;44.95;9.27;;;;;;;27.39;36.34;99003.25;5095192;28;20126;-77
2022/04/01 12:08:43;;;;;;;55.22;10.50;;;;;;;27.71;36.16;98992.34;5095375;28;20020;-78
2022/04/01 12:11:29;;;;;;;54.25;9.57;;;;;;;27.81;36.35;98992.13;5095425;28;20036;-78
2022/04/01 12:14:24;;;;;;;52.55;9.90;;;;;;;27.22;36.02;99013.25;5095157;28;20538;-77
2022/04/01 12:17:10;;;;;;;63.25;10.77;;;;;;;27.35;36.29;99005.47;5095811;28;20039;-77
2022/04/01 12:20:12;;;;;;;46.30;9.80;;;;;;;27.43;36.38;98994.69;5095784;28;20034;-78
2022/04/01 12:23:00;;;;;;;62.47;9.65;;;;;;;27.60;35.92;98981.16;5093837;28;20039;-78
2022/04/01 12:25:49;;;;;;;49.67;10.15;;;;;;;27.88;35.72;98983.19;5095046;28;20024;-77
2022/04/01 12:28:44;;;;;;;55.42;9.32;;;;;;;27.88;35.52;98967.03;5094663;28;20350;-78
2022/04/01 12:31:30;;;;;;;65.07;9.80;;;;;;;27.54;35.64;98971.94;5094675;28;20034;-78
2022/04/01 12:34:16;;;;;;;56.75;9.98;;;;;;;27.56;35.74;98972.56;5094606;28;20054;-78
2022/04/01 12:37:05;;;;;;;51.97;9.82;;;;;;;27.65;35.87;98968.84;5094431;28;20115;-77
2022/04/01 12:39:57;;;;;;;44.30;9.45;;;;;;;27.90;35.72;98967.72;5095181;28;20104;-78
2022/04/01 12:42:48;;;;;;;53.47;9.75;;;;;;;27.94;35.95;98971.72;5080316;28;20020;-78
2022/04/01 12:45:34;;;;;;;44.05;8.98;;;;;;;27.86;35.67;98963.69;5095593;28;20322;-78
2022/04/01 12:48:21;;;;;;;54.38;10.23;;;;;;;27.87;35.57;98959.97;5094848;28;20407;-78
2022/04/01 12:51:07;;;;;;;44.80;9.10;;;;;;;27.57;35.92;98949.22;5080167;28;20103;-78
2022/04/01 12:54:11;;;;;;;48.08;9.13;;;;;;;27.97;35.83;98936.38;5080187;28;20024;-79
2022/04/01 12:56:58;;;;;;;41.78;8.95;;;;;;;27.28;36.36;98937.25;5080666;28;20070;-78
2022/04/01 12:59:45;;;;;;;48.30;9.32;;;;;;;27.34;36.70;98919.56;5079854;28;20058;-77
2022/04/01 13:02:33;;;;;;;44.05;8.98;;;;;;;26.88;36.89;98920.41;5094644;28;20028;-76
2022/04/01 13:05:19;;;;;;;48.50;8.95;;;;;;;26.96;36.88;98925.72;5093763;28;20051;-78
2022/04/01 13:08:09;;;;;;;55.90;8.70;;;;;;;27.16;37.05;98927.00;5094817;28;20380;-78
2022/04/01 13:11:10;;;;;;;49.15;9.40;;;;;;;27.33;36.60;98907.13;5095043;28;20076;-78